createdAt,value
2023-11-18T00:00:40.624Z,6.35
2023-11-18T00:02:45.226Z,5.43
2023-11-18T00:04:48.381Z,5.00
2023-11-18T00:06:51.926Z,5.70
2023-11-18T00:08:54.867Z,5.55
2023-11-18T00:10:58.004Z,4.40
2023-11-18T00:13:02.888Z,5.07
2023-11-18T00:17:13.352Z,5.82
2023-11-18T00:19:16.866Z,6.18
2023-11-18T00:21:19.837Z,5.43
2023-11-18T00:23:22.711Z,6.55
2023-11-18T00:25:25.828Z,7.50
2023-11-18T00:27:28.702Z,6.53
2023-11-18T00:29:32.827Z,6.55
2023-11-18T00:31:35.763Z,8.02
2023-11-18T00:33:39.312Z,7.40
2023-11-18T00:35:44.970Z,6.80
2023-11-18T00:37:49.054Z,7.38
2023-11-18T00:39:52.704Z,7.65
2023-11-18T00:41:56.899Z,7.18
2023-11-18T00:44:00.046Z,7.40
2023-11-18T00:46:04.796Z,7.32
2023-11-18T00:48:08.131Z,7.15
2023-11-18T00:50:12.165Z,8.98
2023-11-18T00:52:16.717Z,7.80
2023-11-18T00:54:19.772Z,10.15
2023-11-18T00:56:22.864Z,8.55
2023-11-18T00:58:26.200Z,9.43
2023-11-18T01:00:29.133Z,9.57
2023-11-18T01:02:32.190Z,8.65
2023-11-18T01:04:35.515Z,9.10
2023-11-18T01:06:38.513Z,9.52
2023-11-18T01:08:42.754Z,7.78
2023-11-18T01:10:45.775Z,9.68
2023-11-18T01:12:48.754Z,9.55
2023-11-18T01:14:52.103Z,8.75
2023-11-18T01:16:55.089Z,10.18
2023-11-18T01:18:57.061Z,8.55
2023-11-18T01:21:00.479Z,8.20
2023-11-18T01:23:03.486Z,9.23
2023-11-18T01:25:09.664Z,9.15
2023-11-18T01:27:13.018Z,8.45
2023-11-18T01:29:15.990Z,8.05
2023-11-18T01:31:19.984Z,8.23
2023-11-18T01:33:24.049Z,7.70
2023-11-18T01:35:27.782Z,8.20
2023-11-18T01:37:30.722Z,7.70
2023-11-18T01:39:33.639Z,6.75
2023-11-18T01:41:37.870Z,7.85
2023-11-18T01:43:41.200Z,7.65
2023-11-18T01:45:44.190Z,7.28
2023-11-18T01:47:49.596Z,8.45
2023-11-18T01:49:53.000Z,7.53
2023-11-18T01:51:56.051Z,7.05
2023-11-18T01:54:01.852Z,7.53
2023-11-18T01:56:06.255Z,6.35
2023-11-18T01:58:12.100Z,8.27
2023-11-18T02:00:19.044Z,7.45
2023-11-18T02:02:23.665Z,7.93
2023-11-18T02:04:27.395Z,7.82
2023-11-18T02:06:30.665Z,7.50
2023-11-18T02:08:32.885Z,7.82
2023-11-18T02:10:37.770Z,7.25
2023-11-18T02:12:46.675Z,8.05
2023-11-18T02:14:52.585Z,8.00
2023-11-18T02:17:00.360Z,8.48
2023-11-18T02:19:06.462Z,8.07
2023-11-18T02:21:11.078Z,7.28
2023-11-18T02:23:14.050Z,8.05
2023-11-18T02:25:17.297Z,6.47
2023-11-18T02:27:23.370Z,7.57
2023-11-18T02:29:28.047Z,7.45
2023-11-18T02:31:38.766Z,8.70
2023-11-18T02:33:52.044Z,8.73
2023-11-18T02:35:58.406Z,7.07
2023-11-18T02:38:04.036Z,7.75
2023-11-18T02:40:12.923Z,7.70
2023-11-18T02:42:16.488Z,7.68
2023-11-18T02:44:24.423Z,8.55
2023-11-18T02:46:29.576Z,8.18
2023-11-18T02:48:33.682Z,7.78
2023-11-18T02:50:37.721Z,8.80
2023-11-18T02:52:41.808Z,8.90
2023-11-18T02:54:44.700Z,8.98
2023-11-18T02:56:46.832Z,8.23
2023-11-18T02:58:49.729Z,10.10
2023-11-18T03:00:54.806Z,9.50
2023-11-18T03:02:57.754Z,9.55
2023-11-18T03:05:00.804Z,9.10
2023-11-18T03:07:03.747Z,8.35
2023-11-18T03:09:08.691Z,9.30
2023-11-18T03:11:11.840Z,10.00
2023-11-18T03:13:13.842Z,8.85
2023-11-18T03:15:17.757Z,10.02
2023-11-18T03:17:22.302Z,9.85
2023-11-18T03:19:24.262Z,10.07
2023-11-18T03:21:27.565Z,9.15
2023-11-18T03:23:30.609Z,9.80
2023-11-18T03:25:33.634Z,11.32
2023-11-18T03:27:36.516Z,9.93
2023-11-18T03:29:40.906Z,8.90
2023-11-18T03:31:45.905Z,10.45
2023-11-18T03:33:50.305Z,11.15
2023-11-18T03:35:53.277Z,10.55
2023-11-18T03:37:56.273Z,9.57
2023-11-18T03:39:59.231Z,9.60
2023-11-18T03:42:02.114Z,10.50
2023-11-18T03:44:04.703Z,10.15
2023-11-18T03:46:08.634Z,10.27
2023-11-18T03:48:15.388Z,10.00
2023-11-18T03:50:19.770Z,9.23
2023-11-18T03:52:23.563Z,11.27
2023-11-18T03:54:26.729Z,11.07
2023-11-18T03:56:29.790Z,9.52
2023-11-18T03:58:33.961Z,10.05
2023-11-18T04:00:37.035Z,10.90
2023-11-18T04:02:41.259Z,11.27
2023-11-18T04:04:44.279Z,11.07
2023-11-18T04:06:48.648Z,9.93
2023-11-18T04:08:51.518Z,9.13
2023-11-18T04:10:53.575Z,11.80
2023-11-18T04:12:56.820Z,12.02
2023-11-18T04:14:59.921Z,9.90
2023-11-18T04:17:03.206Z,12.20
2023-11-18T04:19:06.476Z,11.93
2023-11-18T04:21:09.637Z,12.40
2023-11-18T04:23:15.360Z,10.57
2023-11-18T04:25:18.216Z,11.45
2023-11-18T04:27:21.414Z,11.90
2023-11-18T04:29:24.426Z,11.80
2023-11-18T04:31:27.680Z,10.68
2023-11-18T04:33:31.358Z,10.52
2023-11-18T04:35:35.704Z,12.35
2023-11-18T04:37:39.332Z,10.95
2023-11-18T04:39:43.485Z,10.38
2023-11-18T04:41:46.762Z,11.18
2023-11-18T04:43:49.683Z,11.38
2023-11-18T04:45:53.837Z,11.18
2023-11-18T04:47:56.848Z,12.82
2023-11-18T04:49:59.868Z,10.45
2023-11-18T04:52:02.797Z,10.27
2023-11-18T04:54:05.099Z,10.73
2023-11-18T04:56:11.591Z,10.88
2023-11-18T04:58:14.068Z,10.05
2023-11-18T05:00:20.274Z,12.32
2023-11-18T05:02:24.099Z,11.63
2023-11-18T05:04:26.091Z,10.65
2023-11-18T05:06:28.968Z,11.00
2023-11-18T05:08:34.833Z,12.85
2023-11-18T05:10:39.176Z,11.95
2023-11-18T05:12:44.651Z,14.02
2023-11-18T05:14:46.639Z,12.57
2023-11-18T05:16:49.598Z,10.98
2023-11-18T05:18:52.511Z,11.98
2023-11-18T05:20:55.488Z,11.60
2023-11-18T05:22:58.354Z,12.90
2023-11-18T05:25:00.355Z,11.27
2023-11-18T05:27:03.409Z,11.60
2023-11-18T05:29:07.706Z,11.75
2023-11-18T05:31:10.850Z,10.55
2023-11-18T05:33:18.614Z,12.90
2023-11-18T05:35:24.754Z,9.75
2023-11-18T05:37:29.133Z,10.80
2023-11-18T05:39:32.332Z,10.73
2023-11-18T05:41:36.275Z,11.80
2023-11-18T05:43:41.207Z,11.67
2023-11-18T05:46:06.380Z,11.02
2023-11-18T05:48:09.332Z,11.57
2023-11-18T05:50:12.192Z,11.90
2023-11-18T05:52:15.099Z,10.40
2023-11-18T05:54:18.118Z,11.95
2023-11-18T05:56:23.669Z,11.70
2023-11-18T05:58:26.050Z,11.93
2023-11-18T06:00:36.303Z,11.55
2023-11-18T06:02:45.660Z,12.48
2023-11-18T06:04:48.740Z,12.25
2023-11-18T06:06:51.692Z,12.05
2023-11-18T06:08:55.253Z,13.07
2023-11-18T06:10:58.117Z,14.20
2023-11-18T06:13:01.035Z,12.27
2023-11-18T06:15:04.037Z,13.63
2023-11-18T06:17:08.589Z,13.35
2023-11-18T06:19:12.968Z,14.98
2023-11-18T06:21:16.869Z,12.27
2023-11-18T06:23:22.324Z,13.60
2023-11-18T06:25:27.015Z,12.32
2023-11-18T06:27:30.789Z,12.48
2023-11-18T06:29:33.637Z,10.85
2023-11-18T06:31:35.597Z,14.23
2023-11-18T06:33:41.030Z,13.73
2023-11-18T06:35:46.076Z,15.13
2023-11-18T06:37:49.025Z,13.30
2023-11-18T06:39:51.851Z,14.98
2023-11-18T06:41:54.720Z,14.13
2023-11-18T06:44:02.179Z,13.38
2023-11-18T06:46:04.714Z,14.57
2023-11-18T06:48:07.777Z,12.23
2023-11-18T06:50:12.540Z,11.57
2023-11-18T06:52:17.882Z,12.10
2023-11-18T06:54:20.873Z,13.77
2023-11-18T06:56:24.148Z,14.98
2023-11-18T06:58:27.797Z,13.50
2023-11-18T07:00:31.139Z,15.05
2023-11-18T07:02:34.379Z,14.40
2023-11-18T07:04:39.620Z,14.95
2023-11-18T07:06:44.050Z,13.75
2023-11-18T07:08:50.207Z,11.98
2023-11-18T07:10:53.150Z,16.67
2023-11-18T07:12:56.853Z,14.10
2023-11-18T07:14:59.794Z,12.23
2023-11-18T07:17:02.686Z,15.23
2023-11-18T07:19:05.726Z,13.70
2023-11-18T07:21:08.756Z,14.85
2023-11-18T07:23:11.773Z,14.73
2023-11-18T07:25:16.046Z,14.27
2023-11-18T07:27:18.869Z,13.43
2023-11-18T07:29:21.047Z,14.85
2023-11-18T07:31:24.050Z,12.77
2023-11-18T07:33:26.019Z,14.90
2023-11-18T07:35:28.943Z,13.05
2023-11-18T07:37:33.836Z,13.70
2023-11-18T07:41:49.989Z,13.55
2023-11-18T07:43:52.267Z,14.52
2023-11-18T07:45:55.176Z,17.10
2023-11-18T07:47:58.590Z,14.77
2023-11-18T07:50:05.361Z,17.25
2023-11-18T07:52:07.270Z,15.98
2023-11-18T07:54:11.044Z,16.45
2023-11-18T07:56:14.099Z,15.70
2023-11-18T07:58:21.232Z,14.77
2023-11-18T08:00:25.116Z,13.75
2023-11-18T08:02:27.156Z,14.40
2023-11-18T08:04:30.923Z,14.23
2023-11-18T08:06:33.869Z,13.23
2023-11-18T08:08:37.392Z,14.15
2023-11-18T08:10:42.129Z,13.55
2023-11-18T08:12:45.820Z,12.55
2023-11-18T08:14:50.145Z,10.98
2023-11-18T08:16:53.984Z,13.25
2023-11-18T08:18:57.071Z,11.52
2023-11-18T08:21:01.543Z,12.75
2023-11-18T08:23:04.579Z,12.20
2023-11-18T08:25:09.518Z,10.57
2023-11-18T08:27:12.510Z,12.52
2023-11-18T08:29:15.370Z,12.18
2023-11-18T08:31:19.873Z,12.32
2023-11-18T08:33:25.463Z,9.00
2023-11-18T08:35:30.424Z,11.00
2023-11-18T08:39:36.623Z,8.98
2023-11-18T08:41:39.841Z,10.38
2023-11-18T08:43:43.234Z,10.18
2023-11-18T08:45:48.522Z,9.30
2023-11-18T08:47:54.300Z,10.38
2023-11-18T08:49:57.319Z,9.57
2023-11-18T08:52:00.317Z,9.75
2023-11-18T08:54:03.185Z,9.40
2023-11-18T08:56:06.859Z,12.13
2023-11-18T08:58:21.587Z,9.60
2023-11-18T09:00:42.411Z,9.27
2023-11-18T09:02:52.561Z,11.43
2023-11-18T09:04:59.474Z,9.55
2023-11-18T09:07:02.433Z,8.10
2023-11-18T09:09:16.628Z,8.93
2023-11-18T09:11:19.621Z,8.75
2023-11-18T09:13:23.841Z,9.73
2023-11-18T09:15:26.798Z,9.32
2023-11-18T09:17:29.819Z,8.73
2023-11-18T09:19:32.754Z,9.27
2023-11-18T09:21:37.497Z,9.02
2023-11-18T09:23:41.675Z,7.75
2023-11-18T09:25:47.831Z,8.23
2023-11-18T09:27:50.785Z,9.75
2023-11-18T09:29:53.839Z,8.73
2023-11-18T09:31:56.799Z,7.47
2023-11-18T09:33:59.122Z,8.00
2023-11-18T09:36:02.974Z,8.02
2023-11-18T09:38:07.203Z,7.40
2023-11-18T09:40:15.360Z,6.82
2023-11-18T09:42:20.246Z,7.80
2023-11-18T09:44:24.476Z,7.22
2023-11-18T09:46:33.625Z,7.22
2023-11-18T09:48:42.012Z,7.28
2023-11-18T09:50:48.540Z,7.25
2023-11-18T09:52:56.579Z,6.45
2023-11-18T09:55:05.474Z,5.72
2023-11-18T09:57:16.533Z,7.60
2023-11-18T09:59:25.741Z,6.75
2023-11-18T10:01:29.388Z,6.60
2023-11-18T10:03:32.480Z,5.68
2023-11-18T10:05:37.547Z,6.35
2023-11-18T10:07:42.993Z,6.60
2023-11-18T10:09:47.121Z,6.75
2023-11-18T10:11:51.785Z,6.97
2023-11-18T10:13:55.885Z,6.60
2023-11-18T10:15:58.779Z,5.68
2023-11-18T10:18:07.953Z,5.43
2023-11-18T10:20:17.263Z,5.93
2023-11-18T10:22:25.767Z,6.30
2023-11-18T10:24:31.530Z,5.65
2023-11-18T10:26:35.412Z,6.28
2023-11-18T10:28:39.636Z,6.07
2023-11-18T10:30:47.965Z,5.35
2023-11-18T10:33:06.229Z,5.97
2023-11-18T10:35:11.918Z,5.38
2023-11-18T10:37:16.933Z,6.28
2023-11-18T10:39:25.419Z,6.10
2023-11-18T10:41:31.860Z,5.63
2023-11-18T10:43:37.167Z,6.50
2023-11-18T10:45:45.013Z,6.43
2023-11-18T10:47:48.937Z,6.15
2023-11-18T10:49:52.397Z,6.38
2023-11-18T10:51:55.862Z,6.05
2023-11-18T10:54:02.209Z,6.00
2023-11-18T10:56:06.780Z,6.70
2023-11-18T10:58:09.828Z,6.47
2023-11-18T11:00:16.051Z,6.43
2023-11-18T11:02:25.148Z,7.38
2023-11-18T11:04:28.336Z,6.10
2023-11-18T11:06:31.657Z,5.72
2023-11-18T11:08:41.699Z,6.28
2023-11-18T11:10:45.726Z,5.28
2023-11-18T11:12:53.126Z,5.07
2023-11-18T11:15:01.779Z,5.93
2023-11-18T11:17:13.214Z,4.40
2023-11-18T11:19:28.917Z,5.13
2023-11-18T11:21:36.280Z,5.00
2023-11-18T11:23:55.123Z,4.95
2023-11-18T11:26:06.993Z,4.78
2023-11-18T11:28:17.336Z,4.85
2023-11-18T11:30:26.216Z,4.95
2023-11-18T11:32:39.740Z,5.60
2023-11-18T11:34:53.125Z,4.78
2023-11-18T11:36:58.264Z,6.47
2023-11-18T11:39:07.575Z,4.57
2023-11-18T11:41:20.811Z,4.88
2023-11-18T11:43:25.793Z,4.93
2023-11-18T11:47:37.629Z,4.70
2023-11-18T11:49:50.008Z,4.65
2023-11-18T11:52:00.176Z,4.35
2023-11-18T11:54:15.901Z,5.57
2023-11-18T11:56:25.446Z,5.15
2023-11-18T11:58:28.476Z,6.07
2023-11-18T12:00:35.634Z,5.22
2023-11-18T12:02:41.702Z,6.03
2023-11-18T12:04:48.353Z,4.55
2023-11-18T12:06:56.902Z,4.18
2023-11-18T12:09:07.261Z,5.00
2023-11-18T12:11:10.917Z,4.93
2023-11-18T12:13:20.558Z,3.90
2023-11-18T12:15:55.381Z,4.47
2023-11-18T12:18:19.016Z,3.60
2023-11-18T12:20:43.195Z,4.25
2023-11-18T12:23:15.295Z,4.05
2023-11-18T12:25:36.545Z,4.78
2023-11-18T12:27:52.592Z,4.35
2023-11-18T12:29:55.570Z,3.75
2023-11-18T12:31:58.946Z,4.82
2023-11-18T12:34:06.736Z,3.83
2023-11-18T12:36:53.375Z,3.70
2023-11-18T12:39:33.014Z,4.90
2023-11-18T12:41:38.924Z,4.47
2023-11-18T12:43:59.109Z,4.22
2023-11-18T12:46:40.384Z,4.10
2023-11-18T12:48:47.438Z,4.20
2023-11-18T12:50:50.530Z,4.07
2023-11-18T12:52:55.600Z,3.65
2023-11-18T12:54:59.942Z,3.33
2023-11-18T12:57:03.111Z,3.33
2023-11-18T12:59:07.476Z,3.95
2023-11-18T13:01:15.408Z,3.95
2023-11-18T13:03:18.952Z,3.08
2023-11-18T13:05:22.144Z,3.75
2023-11-18T13:07:25.917Z,3.40
2023-11-18T13:09:31.487Z,2.80
2023-11-18T13:11:35.061Z,3.28
2023-11-18T13:13:37.126Z,3.10
2023-11-18T13:15:40.323Z,3.17
2023-11-18T13:17:43.292Z,2.97
2023-11-18T13:19:48.673Z,3.15
2023-11-18T13:21:51.743Z,3.20
2023-11-18T13:23:55.713Z,3.15
2023-11-18T13:26:01.443Z,2.60
2023-11-18T13:28:06.297Z,3.10
2023-11-18T13:30:13.732Z,3.35
2023-11-18T13:32:17.509Z,2.72
2023-11-18T13:34:21.226Z,2.83
2023-11-18T13:36:25.563Z,3.03
2023-11-18T13:38:28.620Z,2.97
2023-11-18T13:40:44.183Z,3.17
2023-11-18T13:42:48.657Z,3.20
2023-11-18T13:44:51.735Z,2.83
2023-11-18T13:46:55.133Z,2.58
2023-11-18T13:49:00.207Z,2.95
2023-11-18T13:51:03.022Z,3.05
2023-11-18T13:53:06.724Z,2.70
2023-11-18T13:55:10.015Z,2.53
2023-11-18T13:57:13.685Z,2.75
2023-11-18T13:59:19.400Z,2.65
2023-11-18T14:01:22.599Z,2.65
2023-11-18T14:03:27.749Z,2.65
2023-11-18T14:05:30.917Z,2.00
2023-11-18T14:07:33.804Z,2.70
2023-11-18T14:09:41.228Z,2.88
2023-11-18T14:11:44.182Z,2.40
2023-11-18T14:13:46.292Z,2.10
2023-11-18T14:15:56.338Z,2.35
2023-11-18T14:17:59.476Z,2.35
2023-11-18T14:20:03.099Z,2.17
2023-11-18T14:22:07.993Z,2.30
2023-11-18T14:24:11.851Z,2.00
2023-11-18T14:26:14.959Z,2.03
2023-11-18T14:28:17.124Z,2.50
2023-11-18T14:30:20.796Z,2.50
2023-11-18T14:32:24.115Z,2.30
2023-11-18T14:34:28.080Z,2.10
2023-11-18T14:36:30.944Z,2.17
2023-11-18T14:38:35.332Z,2.97
2023-11-18T14:40:37.398Z,2.20
2023-11-18T14:42:40.318Z,2.20
2023-11-18T14:44:43.276Z,2.20
2023-11-18T14:46:46.836Z,2.45
2023-11-18T14:48:51.641Z,2.03
2023-11-18T14:50:53.570Z,2.42
2023-11-18T14:53:00.816Z,2.28
2023-11-18T14:55:05.454Z,2.95
2023-11-18T14:57:08.299Z,5.55
2023-11-18T14:59:11.429Z,26.95
2023-11-18T15:01:14.263Z,20.10
2023-11-18T15:03:17.382Z,8.10
2023-11-18T15:05:22.381Z,5.47
2023-11-18T15:07:25.428Z,4.10
2023-11-18T15:09:32.855Z,5.43
2023-11-18T15:11:35.973Z,3.72
2023-11-18T15:13:40.506Z,3.75
2023-11-18T15:15:43.978Z,3.33
2023-11-18T15:17:48.406Z,3.00
2023-11-18T15:19:51.858Z,3.63
2023-11-18T15:21:55.207Z,2.45
2023-11-18T15:24:00.543Z,2.55
2023-11-18T15:26:03.586Z,2.50
2023-11-18T15:28:10.750Z,3.05
2023-11-18T15:30:14.077Z,2.20
2023-11-18T15:32:18.153Z,2.20
2023-11-18T15:34:22.259Z,2.58
2023-11-18T15:36:26.534Z,2.47
2023-11-18T15:38:31.182Z,2.90
2023-11-18T15:40:33.123Z,2.25
2023-11-18T15:42:37.520Z,2.40
2023-11-18T15:44:41.049Z,2.72
2023-11-18T15:46:49.694Z,2.28
2023-11-18T15:48:53.047Z,2.65
2023-11-18T15:50:57.443Z,2.70
2023-11-18T15:53:01.406Z,3.08
2023-11-18T15:55:10.891Z,2.80
2023-11-18T15:57:14.143Z,2.60
2023-11-18T15:59:17.047Z,3.67
2023-11-18T16:01:20.023Z,2.35
2023-11-18T16:03:23.166Z,2.20
2023-11-18T16:05:27.843Z,2.65
2023-11-18T16:07:29.873Z,3.13
2023-11-18T16:09:32.774Z,2.92
2023-11-18T16:11:37.704Z,3.03
2023-11-18T16:13:40.489Z,3.55
2023-11-18T16:15:43.360Z,3.20
2023-11-18T16:17:47.210Z,2.90
2023-11-18T16:19:50.304Z,2.83
2023-11-18T16:21:54.282Z,3.15
2023-11-18T16:23:57.144Z,3.40
2023-11-18T16:26:00.628Z,2.42
2023-11-18T16:28:06.149Z,3.10
2023-11-18T16:30:10.964Z,2.55
2023-11-18T16:32:13.854Z,2.42
2023-11-18T16:34:16.938Z,2.40
2023-11-18T16:36:23.826Z,2.38
2023-11-18T16:38:26.166Z,2.90
2023-11-18T16:40:29.116Z,2.13
2023-11-18T16:42:31.981Z,2.78
2023-11-18T16:44:36.274Z,2.50
2023-11-18T16:46:41.010Z,2.22
2023-11-18T16:48:43.992Z,2.67
2023-11-18T16:50:46.580Z,2.60
2023-11-18T16:52:49.906Z,2.45
2023-11-18T16:54:52.791Z,2.72
2023-11-18T16:56:56.383Z,2.80
2023-11-18T16:59:00.572Z,5.40
2023-11-18T17:01:06.114Z,3.67
2023-11-18T17:03:10.789Z,3.63
2023-11-18T17:05:13.863Z,3.28
2023-11-18T17:07:17.912Z,3.30
2023-11-18T17:09:20.736Z,5.32
2023-11-18T17:11:23.648Z,3.67
2023-11-18T17:13:28.143Z,3.70
2023-11-18T17:15:31.038Z,3.45
2023-11-18T17:17:35.392Z,3.72
2023-11-18T17:19:38.320Z,3.15
2023-11-18T17:21:41.496Z,3.30
2023-11-18T17:23:44.960Z,3.65
2023-11-18T17:25:47.950Z,3.90
2023-11-18T17:27:50.836Z,4.50
2023-11-18T17:29:56.651Z,4.53
2023-11-18T17:31:59.602Z,3.75
2023-11-18T17:34:04.044Z,4.25
2023-11-18T17:36:07.628Z,3.38
2023-11-18T17:38:10.704Z,4.05
2023-11-18T17:40:14.082Z,3.50
2023-11-18T17:42:17.071Z,4.70
2023-11-18T17:44:19.934Z,4.07
2023-11-18T17:46:22.998Z,4.20
2023-11-18T17:48:25.009Z,3.40
2023-11-18T17:50:29.377Z,4.20
2023-11-18T17:52:32.890Z,4.18
2023-11-18T17:54:35.816Z,4.00
2023-11-18T17:56:39.949Z,3.72
2023-11-18T17:58:42.782Z,3.92
2023-11-18T18:00:45.437Z,3.92
2023-11-18T18:02:49.041Z,4.28
2023-11-18T18:04:51.975Z,4.20
2023-11-18T18:06:56.224Z,4.30
2023-11-18T18:08:59.539Z,4.00
2023-11-18T18:11:01.461Z,4.70
2023-11-18T18:13:53.937Z,4.72
2023-11-18T18:15:56.953Z,3.25
2023-11-18T18:17:59.531Z,4.05
2023-11-18T18:20:02.474Z,4.13
2023-11-18T18:22:06.833Z,3.55
2023-11-18T18:24:12.083Z,4.10
2023-11-18T18:26:16.400Z,4.30
2023-11-18T18:28:19.415Z,4.82
2023-11-18T18:30:22.334Z,5.80
2023-11-18T18:32:25.321Z,4.22
2023-11-18T18:34:28.747Z,5.43
2023-11-18T18:36:31.585Z,4.32
2023-11-18T18:38:35.904Z,4.00
2023-11-18T18:40:38.851Z,4.40
2023-11-18T18:42:42.555Z,3.70
2023-11-18T18:44:45.498Z,3.65
2023-11-18T18:46:48.442Z,4.25
2023-11-18T18:48:51.391Z,3.40
2023-11-18T18:50:54.259Z,3.60
2023-11-18T18:52:57.086Z,3.92
2023-11-18T18:55:01.469Z,3.92
2023-11-18T18:57:06.740Z,3.60
2023-11-18T18:59:12.147Z,6.10
2023-11-18T19:01:15.760Z,3.28
2023-11-18T19:03:19.104Z,3.67
2023-11-18T19:05:24.544Z,4.13
2023-11-18T19:07:30.028Z,4.03
2023-11-18T19:09:33.026Z,3.50
2023-11-18T19:11:37.336Z,3.67
2023-11-18T19:13:39.380Z,3.60
2023-11-18T19:15:42.411Z,3.88
2023-11-18T19:17:45.642Z,4.43
2023-11-18T19:19:49.374Z,4.40
2023-11-18T19:21:52.513Z,4.07
2023-11-18T19:23:55.535Z,4.15
2023-11-18T19:25:58.475Z,4.30
2023-11-18T19:28:03.977Z,4.30
2023-11-18T19:30:09.992Z,7.50
2023-11-18T19:32:13.030Z,7.28
2023-11-18T19:34:15.941Z,3.60
2023-11-18T19:36:18.845Z,3.60
2023-11-18T19:38:23.140Z,3.58
2023-11-18T19:40:26.199Z,3.40
2023-11-18T19:42:29.565Z,5.72
2023-11-18T19:44:34.004Z,4.85
2023-11-18T19:46:36.948Z,4.00
2023-11-18T19:48:39.882Z,4.78
2023-11-18T19:50:42.933Z,3.63
2023-11-18T19:52:44.922Z,4.07
2023-11-18T19:54:47.978Z,3.50
2023-11-18T19:56:51.213Z,3.97
2023-11-18T19:58:54.128Z,4.53
2023-11-18T20:00:58.444Z,3.95
2023-11-18T20:03:01.672Z,4.78
2023-11-18T20:05:03.922Z,4.60
2023-11-18T20:07:06.937Z,3.88
2023-11-18T20:09:11.347Z,4.57
2023-11-18T20:11:14.242Z,3.22
2023-11-18T20:13:17.197Z,3.95
2023-11-18T20:15:21.933Z,4.35
2023-11-18T20:17:25.159Z,3.63
2023-11-18T20:19:28.941Z,4.28
2023-11-18T20:21:31.871Z,3.95
2023-11-18T20:23:34.739Z,3.55
2023-11-18T20:25:37.676Z,3.13
2023-11-18T20:27:40.880Z,2.97
2023-11-18T20:29:44.434Z,4.50
2023-11-18T20:31:47.334Z,3.88
2023-11-18T20:33:51.176Z,3.03
2023-11-18T20:35:59.522Z,4.40
2023-11-18T20:38:03.239Z,3.80
2023-11-18T20:40:11.905Z,5.18
2023-11-18T20:42:15.887Z,3.10
2023-11-18T20:44:19.056Z,4.05
2023-11-18T20:46:22.107Z,3.83
2023-11-18T20:48:25.054Z,3.65
2023-11-18T20:50:29.435Z,3.28
2023-11-18T20:52:34.127Z,4.55
2023-11-18T20:54:37.354Z,8.73
2023-11-18T20:56:40.326Z,3.33
2023-11-18T20:58:45.745Z,4.45
2023-11-18T21:00:48.781Z,3.20
2023-11-18T21:02:51.863Z,3.10
2023-11-18T21:04:54.042Z,5.35
2023-11-18T21:06:58.370Z,5.10
2023-11-18T21:09:01.547Z,3.72
2023-11-18T21:11:04.996Z,3.40
2023-11-18T21:13:08.717Z,4.65
2023-11-18T21:15:13.414Z,10.97
2023-11-18T21:17:16.433Z,5.43
2023-11-18T21:19:19.813Z,3.35
2023-11-18T21:21:22.928Z,3.42
2023-11-18T21:23:27.209Z,3.10
2023-11-18T21:25:31.696Z,3.50
2023-11-18T21:27:35.083Z,3.97
2023-11-18T21:29:37.947Z,3.70
2023-11-18T21:31:41.556Z,4.68
2023-11-18T21:33:44.656Z,3.20
2023-11-18T21:35:47.769Z,3.38
2023-11-18T21:37:51.598Z,3.63
2023-11-18T21:39:55.985Z,3.80
2023-11-18T21:41:58.930Z,3.15
2023-11-18T21:44:06.057Z,2.47
2023-11-18T21:46:08.966Z,3.45
2023-11-18T21:48:11.930Z,2.88
2023-11-18T21:50:15.995Z,3.78
2023-11-18T21:52:18.950Z,3.53
2023-11-18T21:54:21.818Z,3.50
2023-11-18T21:56:26.087Z,4.35
2023-11-18T21:58:28.067Z,3.63
2023-11-18T22:00:32.337Z,10.18
2023-11-18T22:02:35.342Z,5.20
2023-11-18T22:04:38.256Z,3.80
2023-11-18T22:06:41.140Z,3.63
2023-11-18T22:08:44.092Z,3.83
2023-11-18T22:10:47.311Z,4.10
2023-11-18T22:12:53.824Z,3.70
2023-11-18T22:14:55.830Z,4.55
2023-11-18T22:16:58.928Z,4.53
2023-11-18T22:19:01.777Z,17.80
2023-11-18T22:21:05.371Z,8.60
2023-11-18T22:23:08.248Z,6.30
2023-11-18T22:25:14.081Z,6.32
2023-11-18T22:27:17.223Z,11.43
2023-11-18T22:29:21.988Z,12.60
2023-11-18T22:31:24.989Z,21.27
2023-11-18T22:33:28.196Z,11.02
2023-11-18T22:35:33.200Z,5.47
2023-11-18T22:37:36.540Z,6.27
2023-11-18T22:39:39.368Z,8.90
2023-11-18T22:41:42.797Z,10.05
2023-11-18T22:43:45.860Z,9.43
2023-11-18T22:45:51.632Z,5.55
2023-11-18T22:47:55.195Z,6.18
2023-11-18T22:49:58.380Z,5.00
2023-11-18T22:52:02.536Z,9.27
2023-11-18T22:54:05.617Z,10.90
2023-11-18T22:56:09.157Z,9.63
2023-11-18T22:58:11.999Z,23.35
2023-11-18T23:00:29.768Z,17.23
2023-11-18T23:02:34.149Z,33.88
2023-11-18T23:04:37.073Z,12.32
2023-11-18T23:06:40.278Z,8.13
2023-11-18T23:08:44.394Z,12.95
2023-11-18T23:10:48.150Z,26.63
2023-11-18T23:12:50.990Z,16.50
2023-11-18T23:14:54.338Z,48.42
2023-11-18T23:19:12.196Z,17.50
2023-11-18T23:21:15.951Z,31.90
2023-11-18T23:23:19.123Z,27.02
2023-11-18T23:25:23.636Z,42.28
2023-11-18T23:27:28.037Z,12.60
2023-11-18T23:29:31.814Z,6.32
2023-11-18T23:31:34.796Z,19.55
2023-11-18T23:33:37.667Z,12.50
2023-11-18T23:35:41.948Z,16.95
2023-11-18T23:37:43.770Z,24.08
2023-11-18T23:39:48.801Z,12.95
2023-11-18T23:41:51.806Z,7.40
2023-11-18T23:43:55.732Z,19.25
2023-11-18T23:45:58.739Z,10.10
2023-11-18T23:48:01.702Z,10.15
2023-11-18T23:50:04.222Z,4.68
2023-11-18T23:52:08.623Z,3.88
2023-11-18T23:54:11.581Z,3.00
2023-11-18T23:56:14.512Z,4.38
2023-11-18T23:58:17.458Z,4.50
